createdAt,value
2022-11-27T00:04:11.596Z,3.44
2022-11-27T00:09:11.275Z,3.60
2022-11-27T00:14:14.294Z,3.30
2022-11-27T00:19:11.310Z,3.27
2022-11-27T00:24:11.190Z,3.61
2022-11-27T00:29:11.009Z,4.22
2022-11-27T00:34:11.051Z,4.03
2022-11-27T00:39:10.929Z,3.02
2022-11-27T00:44:10.855Z,3.06
2022-11-27T00:49:10.774Z,3.90
2022-11-27T00:54:10.769Z,4.08
2022-11-27T00:59:10.779Z,4.33
2022-11-27T01:04:10.607Z,3.92
2022-11-27T01:09:10.710Z,2.70
2022-11-27T01:14:13.498Z,2.56
2022-11-27T01:20:21.039Z,3.40
2022-11-27T01:25:26.643Z,3.30
2022-11-27T01:30:21.882Z,3.31
2022-11-27T01:35:20.833Z,2.88
2022-11-27T01:40:21.012Z,3.15
2022-11-27T01:45:20.649Z,3.71
2022-11-27T01:50:20.675Z,3.09
2022-11-27T01:55:20.528Z,2.92
2022-11-27T02:00:20.561Z,3.03
2022-11-27T02:05:20.535Z,3.60
2022-11-27T02:10:23.464Z,3.42
2022-11-27T02:15:20.305Z,2.95
2022-11-27T02:20:20.254Z,2.59
2022-11-27T02:25:23.945Z,2.69
2022-11-27T02:30:21.296Z,2.70
2022-11-27T02:35:20.079Z,2.73
2022-11-27T02:40:19.981Z,2.51
2022-11-27T02:45:19.906Z,2.15
2022-11-27T02:50:19.989Z,2.64
2022-11-27T02:55:19.796Z,2.64
2022-11-27T03:00:19.921Z,2.95
2022-11-27T03:05:19.694Z,2.45
2022-11-27T03:10:22.929Z,2.55
2022-11-27T03:15:19.618Z,2.38
2022-11-27T03:20:19.475Z,2.98
2022-11-27T03:25:19.366Z,2.74
2022-11-27T03:30:19.559Z,3.28
2022-11-27T03:35:19.879Z,2.70
2022-11-27T03:40:19.215Z,2.58
2022-11-27T03:45:19.095Z,2.71
2022-11-27T03:50:19.336Z,2.74
2022-11-27T03:55:19.155Z,3.25
2022-11-27T04:00:18.985Z,3.12
2022-11-27T04:05:26.880Z,2.76
2022-11-27T04:10:21.869Z,2.35
2022-11-27T04:15:18.858Z,2.61
2022-11-27T04:20:19.202Z,3.25
2022-11-27T04:25:19.013Z,3.44
2022-11-27T04:30:26.366Z,3.78
2022-11-27T04:35:18.520Z,3.05
2022-11-27T04:40:18.571Z,3.02
2022-11-27T04:45:18.374Z,2.64
2022-11-27T04:50:18.385Z,2.61
2022-11-27T04:55:18.234Z,2.69
2022-11-27T05:00:26.037Z,3.49
2022-11-27T05:05:18.134Z,2.91
2022-11-27T05:10:21.069Z,3.00
2022-11-27T05:15:18.184Z,2.66
2022-11-27T05:20:18.457Z,2.58
2022-11-27T05:25:17.873Z,2.59
2022-11-27T05:30:17.999Z,3.10
2022-11-27T05:35:17.831Z,2.71
2022-11-27T05:40:17.760Z,2.82
2022-11-27T05:45:17.586Z,3.13
2022-11-27T05:50:17.725Z,3.49
2022-11-27T05:55:17.619Z,3.57
2022-11-27T06:00:17.570Z,3.62
2022-11-27T06:05:17.319Z,3.62
2022-11-27T06:10:20.490Z,3.50
2022-11-27T06:15:17.240Z,3.00
2022-11-27T06:20:17.234Z,3.53
2022-11-27T06:25:17.106Z,3.58
2022-11-27T06:30:17.260Z,3.53
2022-11-27T06:35:17.130Z,3.54
2022-11-27T06:40:16.923Z,3.61
2022-11-27T06:45:16.925Z,3.44
2022-11-27T06:50:17.006Z,2.35
2022-11-27T06:55:24.214Z,2.69
2022-11-27T07:00:16.634Z,2.46
2022-11-27T07:05:16.609Z,3.07
2022-11-27T07:10:19.614Z,2.48
2022-11-27T07:15:16.666Z,2.56
2022-11-27T07:20:16.467Z,3.27
2022-11-27T07:25:16.404Z,3.27
2022-11-27T07:30:16.325Z,3.16
2022-11-27T07:35:16.273Z,3.46
2022-11-27T07:40:16.250Z,3.20
2022-11-27T07:45:16.085Z,3.28
2022-11-27T07:50:16.054Z,3.57
2022-11-27T07:55:15.930Z,3.24
2022-11-27T08:00:15.955Z,3.21
2022-11-27T08:05:15.888Z,3.30
2022-11-27T08:10:18.755Z,3.70
2022-11-27T08:15:15.680Z,3.54
2022-11-27T08:20:15.654Z,3.80
2022-11-27T08:25:15.558Z,3.98
2022-11-27T08:30:15.534Z,3.86
2022-11-27T08:35:15.610Z,3.98
2022-11-27T08:40:15.362Z,4.15
2022-11-27T08:45:15.269Z,4.12
2022-11-27T08:50:15.384Z,3.54
2022-11-27T08:55:15.372Z,3.76
2022-11-27T09:00:15.259Z,4.14
2022-11-27T09:05:15.094Z,4.33
2022-11-27T09:10:18.000Z,4.29
2022-11-27T09:15:14.944Z,4.19
2022-11-27T09:20:15.140Z,4.61
2022-11-27T09:25:14.804Z,4.70
2022-11-27T09:30:14.761Z,4.77
2022-11-27T09:35:22.790Z,5.30
2022-11-27T09:40:22.111Z,5.43
2022-11-27T09:45:14.560Z,4.83
2022-11-27T09:50:14.495Z,4.79
2022-11-27T09:55:14.579Z,4.96
2022-11-27T10:00:14.387Z,5.12
2022-11-27T10:05:14.958Z,5.23
2022-11-27T10:10:17.266Z,5.20
2022-11-27T10:15:14.289Z,4.89
2022-11-27T10:20:14.406Z,5.35
2022-11-27T10:25:14.195Z,5.43
2022-11-27T10:30:14.256Z,5.48
2022-11-27T10:35:13.970Z,5.56
2022-11-27T10:40:14.359Z,5.64
2022-11-27T10:45:13.791Z,5.67
2022-11-27T10:50:13.832Z,5.85
2022-11-27T10:55:13.629Z,5.98
2022-11-27T11:00:13.804Z,6.14
2022-11-27T11:05:35.020Z,6.38
2022-11-27T11:10:17.542Z,6.46
2022-11-27T11:15:13.807Z,6.53
2022-11-27T11:20:14.095Z,7.12
2022-11-27T11:25:13.254Z,6.80
2022-11-27T11:30:13.390Z,7.27
2022-11-27T11:35:13.190Z,7.90
2022-11-27T11:40:16.088Z,8.15
2022-11-27T11:45:13.482Z,8.40
2022-11-27T11:50:13.101Z,8.66
2022-11-27T11:55:12.891Z,8.53
2022-11-27T12:00:12.814Z,8.68
2022-11-27T12:05:12.941Z,9.27
2022-11-27T12:10:15.865Z,9.61
2022-11-27T12:15:12.660Z,9.30
2022-11-27T12:20:15.657Z,9.63
2022-11-27T12:25:12.450Z,9.25
2022-11-27T12:30:12.752Z,9.34
2022-11-27T12:35:12.480Z,9.76
2022-11-27T12:40:12.319Z,9.78
2022-11-27T12:45:12.266Z,9.76
2022-11-27T12:50:12.330Z,10.17
2022-11-27T12:55:12.082Z,9.97
2022-11-27T13:00:12.065Z,10.53
2022-11-27T13:05:12.326Z,10.22
2022-11-27T13:10:14.950Z,10.66
2022-11-27T13:15:12.373Z,10.04
2022-11-27T13:20:12.053Z,10.34
2022-11-27T13:25:11.721Z,10.10
2022-11-27T13:30:11.760Z,10.26
2022-11-27T13:35:11.605Z,10.60
2022-11-27T13:40:12.416Z,10.36
2022-11-27T13:45:20.290Z,10.91
2022-11-27T13:50:11.687Z,10.06
2022-11-27T13:55:11.315Z,10.43
2022-11-27T14:00:11.395Z,9.89
2022-11-27T14:05:11.220Z,10.19
2022-11-27T14:10:21.969Z,10.65
2022-11-27T14:15:18.540Z,10.40
2022-11-27T14:20:11.014Z,10.32
2022-11-27T14:25:11.044Z,10.21
2022-11-27T14:30:10.946Z,10.24
2022-11-27T14:35:11.348Z,9.68
2022-11-27T14:40:13.648Z,9.43
2022-11-27T14:45:10.769Z,9.76
2022-11-27T14:50:10.775Z,9.75
2022-11-27T14:55:10.628Z,9.57
2022-11-27T15:00:10.956Z,9.58
2022-11-27T15:05:11.611Z,9.60
2022-11-27T15:10:13.765Z,9.32
2022-11-27T15:15:11.061Z,8.72
2022-11-27T15:20:10.295Z,9.12
2022-11-27T15:25:10.198Z,9.10
2022-11-27T15:30:11.133Z,9.12
2022-11-27T15:35:10.024Z,9.12
2022-11-27T15:40:17.615Z,9.42
2022-11-27T15:45:10.180Z,9.35
2022-11-27T15:50:09.846Z,8.83
2022-11-27T15:55:09.907Z,8.87
2022-11-27T16:00:17.720Z,9.34
2022-11-27T16:05:17.110Z,9.35
2022-11-27T16:10:20.770Z,9.42
2022-11-27T16:15:09.734Z,8.60
2022-11-27T16:20:09.505Z,8.78
2022-11-27T16:25:09.419Z,8.97
2022-11-27T16:30:09.621Z,8.91
2022-11-27T16:35:09.395Z,8.90
2022-11-27T16:40:09.189Z,8.91
2022-11-27T16:45:09.062Z,8.87
2022-11-27T16:50:09.261Z,8.86
2022-11-27T16:55:08.965Z,8.90
2022-11-27T17:00:08.985Z,9.01
2022-11-27T17:05:08.895Z,8.79
2022-11-27T17:10:11.853Z,8.96
2022-11-27T17:15:08.860Z,8.45
2022-11-27T17:20:08.859Z,8.51
2022-11-27T17:25:08.585Z,8.55
2022-11-27T17:30:08.562Z,8.47
2022-11-27T17:35:08.702Z,8.47
2022-11-27T17:40:08.442Z,8.51
2022-11-27T17:45:08.326Z,8.47
2022-11-27T17:50:08.852Z,8.42
2022-11-27T17:55:08.249Z,8.33
2022-11-27T18:00:08.964Z,8.33
2022-11-27T18:05:09.200Z,8.45
2022-11-27T18:10:11.065Z,8.32
2022-11-27T18:15:07.954Z,7.69
2022-11-27T18:20:07.941Z,8.39
2022-11-27T18:25:07.847Z,7.94
2022-11-27T18:30:08.277Z,8.02
2022-11-27T18:35:07.735Z,7.84
2022-11-27T18:40:07.816Z,7.97
2022-11-27T18:45:20.238Z,7.82
2022-11-27T18:50:08.727Z,8.04
2022-11-27T18:55:07.414Z,7.89
2022-11-27T19:00:07.385Z,8.07
2022-11-27T19:05:07.391Z,8.18
2022-11-27T19:10:10.265Z,8.15
2022-11-27T19:15:07.160Z,7.49
2022-11-27T19:20:07.560Z,7.59
2022-11-27T19:25:07.025Z,8.11
2022-11-27T19:30:07.145Z,8.11
2022-11-27T19:35:15.019Z,8.42
2022-11-27T19:40:06.826Z,8.20
2022-11-27T19:45:06.948Z,8.07
2022-11-27T19:50:06.717Z,8.11
2022-11-27T19:55:06.775Z,8.03
2022-11-27T20:00:06.587Z,7.50
2022-11-27T20:05:06.725Z,7.82
2022-11-27T20:10:09.603Z,7.77
2022-11-27T20:15:06.381Z,7.41
2022-11-27T20:20:06.331Z,7.27
2022-11-27T20:25:21.774Z,7.26
2022-11-27T20:30:07.283Z,7.47
2022-11-27T20:35:06.198Z,7.40
2022-11-27T20:40:07.027Z,7.38
2022-11-27T20:45:05.987Z,7.26
2022-11-27T20:50:06.021Z,7.23
2022-11-27T20:55:05.933Z,7.40
2022-11-27T21:00:05.826Z,7.31
